CheckWX is a tool to help pilots better visualize weather data.  It is not intended as a substitute for an official pre-flight weather briefing.

16:05:50 UTC

KGNC METAR
Gaines County Airport
Seminole, Texas, USA
Current

11 mins ago

KGNC 261555Z AUTO 16014G17KT 10SM OVC021 24/18 A3003 RMK AO2 T02360180
Observed
May-26 @ 15:55 UTC
Wind
  • 160° at 14 KTS
  • Gusting to 17 KTS
Visibility
10 SM
Flight Rules
MVFR
Cloud Levels
  • Overcast at 2,100' AGL
Temperature
24°C / 75°F
Dewpoint
18°C / 64°F
Humidity
69%
Altimeter
30.03" Hg
Pressure
1016.92 hPa
Previous

31 mins ago

KGNC 261535Z AUTO 17008KT 10SM OVC021 23/18 A3004 RMK AO2 T02340181
Observed
May-26 @ 15:35 UTC
Wind
  • 170° at 8 KTS
Visibility
10 SM
Flight Rules
MVFR
Cloud Levels
  • Overcast at 2,100' AGL
Temperature
23°C / 73°F
Dewpoint
18°C / 64°F
Humidity
74%
Altimeter
30.04" Hg
Pressure
1017.32 hPa
Previous

51 mins ago

KGNC 261515Z AUTO 17009KT 10SM OVC019 23/18 A3003 RMK AO2 T02310181
Observed
May-26 @ 15:15 UTC
Wind
  • 170° at 9 KTS
Visibility
10 SM
Flight Rules
MVFR
Cloud Levels
  • Overcast at 1,900' AGL
Temperature
23°C / 73°F
Dewpoint
18°C / 64°F
Humidity
74%
Altimeter
30.03" Hg
Pressure
1016.92 hPa